Time;durP1;ratioP1;P1;durP2;ratioP2;P2;SDS_P1;SDS_P2;PMS_P1;PMS_P2;Temp;Humidity;BMP_temperature;BMP_pressure;BME280_temperature;BME280_humidity;BME280_pressure;Samples;Min_cycle;Max_cycle;Signal;HPM_P1;HPM_P2
2022/07/19 00:01:52;;;;;;;4.03;3.63;;;;;;;19.09;68.96;98524.41;5058653;28;20218;-72
2022/07/19 00:04:19;;;;;;;4.27;3.87;;;;;;;19.08;69.09;98522.72;5057458;28;20215;-72
2022/07/19 00:06:45;;;;;;;4.07;3.47;;;;;;;19.06;69.07;98524.72;5057068;28;20231;-72
2022/07/19 00:09:12;;;;;;;4.50;4.10;;;;;;;18.94;69.99;98531.28;5057123;28;20223;-72
2022/07/19 00:11:38;;;;;;;3.97;3.57;;;;;;;18.84;70.82;98529.63;5059510;28;20219;-72
2022/07/19 00:14:05;;;;;;;4.80;4.30;;;;;;;18.74;71.18;98529.69;5055589;28;20208;-72
2022/07/19 00:16:33;;;;;;;4.43;3.70;;;;;;;18.66;71.49;98526.88;5057008;28;20216;-71
2022/07/19 00:18:59;;;;;;;4.93;3.63;;;;;;;18.61;71.64;98529.16;5056731;28;20218;-73
2022/07/19 00:21:26;;;;;;;6.90;4.27;;;;;;;18.57;71.64;98521.56;5058873;28;20326;-72
2022/07/19 00:23:52;;;;;;;4.33;3.93;;;;;;;18.56;71.85;98522.53;5056689;28;20230;-71
2022/07/19 00:26:19;;;;;;;4.43;4.00;;;;;;;18.53;72.04;98518.31;5057049;28;20212;-71
2022/07/19 00:28:45;;;;;;;4.97;4.27;;;;;;;18.49;72.71;98519.63;5057078;28;20238;-71
2022/07/19 00:31:12;;;;;;;4.80;3.63;;;;;;;18.44;73.02;98518.34;5059022;28;20217;-70
2022/07/19 00:33:40;;;;;;;4.03;3.60;;;;;;;18.42;73.32;98521.16;5056917;28;20215;-71
2022/07/19 00:36:06;;;;;;;4.07;3.67;;;;;;;18.46;72.81;98519.91;5056790;28;20216;-71
2022/07/19 00:38:33;;;;;;;4.30;3.90;;;;;;;18.60;72.61;98523.94;5056688;28;20226;-71
2022/07/19 00:41:02;;;;;;;4.97;4.17;;;;;;;18.67;72.46;98512.50;5057109;28;20232;-71
2022/07/19 00:43:28;;;;;;;4.40;4.00;;;;;;;18.66;72.58;98515.34;5056441;28;20246;-71
2022/07/19 00:45:55;;;;;;;4.93;4.13;;;;;;;18.65;72.98;98513.66;5056659;28;20220;-71
2022/07/19 00:48:22;;;;;;;4.57;4.10;;;;;;;18.66;73.21;98513.47;5056342;28;20676;-72
2022/07/19 00:50:50;;;;;;;4.50;4.10;;;;;;;18.62;73.33;98520.13;5058537;28;20216;-72
2022/07/19 00:53:19;;;;;;;4.83;4.30;;;;;;;18.62;73.72;98520.13;5056051;28;20750;-72
2022/07/19 00:55:46;;;;;;;4.73;4.33;;;;;;;18.62;73.78;98520.13;5056229;28;20655;-72
2022/07/19 00:58:14;;;;;;;5.37;4.40;;;;;;;18.63;73.46;98521.81;5056221;28;20215;-72
2022/07/19 01:00:41;;;;;;;5.03;4.53;;;;;;;18.65;73.24;98519.00;5057684;28;20285;-72
2022/07/19 01:03:08;;;;;;;5.40;4.53;;;;;;;18.62;73.65;98520.13;5055917;28;20556;-72
2022/07/19 01:05:35;;;;;;;5.90;5.30;;;;;;;18.56;73.97;98520.72;5055758;28;20212;-71
2022/07/19 01:08:04;;;;;;;6.07;4.70;;;;;;;18.47;74.19;98516.22;5055076;28;20245;-71
2022/07/19 01:10:30;;;;;;;4.80;4.30;;;;;;;18.38;74.43;98509.09;5058003;28;20219;-71
2022/07/19 01:12:57;;;;;;;5.40;4.50;;;;;;;18.35;73.98;98516.56;5055802;28;20212;-71
2022/07/19 01:15:26;;;;;;;4.43;4.07;;;;;;;18.37;73.49;98519.94;5055299;28;20219;-71
2022/07/19 01:17:53;;;;;;;5.23;4.10;;;;;;;18.37;73.75;98517.25;5055956;28;20276;-71
2022/07/19 01:20:21;;;;;;;5.97;4.67;;;;;;;18.38;73.96;98516.25;5057820;28;20240;-72
2022/07/19 01:22:49;;;;;;;4.43;4.03;;;;;;;18.35;74.15;98509.38;5055947;28;20208;-72
2022/07/19 01:25:16;;;;;;;5.70;4.73;;;;;;;18.33;74.45;98507.81;5055977;28;20218;-72
2022/07/19 01:27:45;;;;;;;4.83;4.40;;;;;;;18.36;74.77;98513.72;5055720;28;20218;-72
2022/07/19 01:30:13;;;;;;;5.40;4.53;;;;;;;18.42;74.69;98512.31;5057771;28;20207;-72
2022/07/19 01:32:39;;;;;;;5.77;4.43;;;;;;;18.44;74.58;98516.53;5053788;28;20220;-71
2022/07/19 01:35:08;;;;;;;4.90;4.30;;;;;;;18.41;74.53;98519.47;5055711;28;20307;-71
2022/07/19 01:37:35;;;;;;;5.57;4.77;;;;;;;18.38;75.14;98510.91;5055500;28;20218;-71
2022/07/19 01:40:04;;;;;;;5.37;4.10;;;;;;;18.39;74.84;98515.25;5057354;28;20236;-70
2022/07/19 01:42:30;;;;;;;4.93;4.40;;;;;;;18.37;74.86;98510.06;5055641;28;20216;-71
2022/07/19 01:44:57;;;;;;;5.53;4.43;;;;;;;18.33;75.30;98510.50;5055292;28;20212;-71
2022/07/19 01:47:24;;;;;;;4.77;4.30;;;;;;;18.26;75.17;98510.22;5055619;28;20223;-71
2022/07/19 01:49:50;;;;;;;4.90;4.40;;;;;;;18.24;75.48;98508.66;5057727;28;20214;-71
2022/07/19 01:52:17;;;;;;;4.93;4.37;;;;;;;18.24;75.09;98514.84;5055139;28;20220;-72
2022/07/19 01:54:44;;;;;;;4.50;4.10;;;;;;;18.21;75.03;98516.97;5055438;28;20562;-71
2022/07/19 01:57:12;;;;;;;6.00;4.50;;;;;;;18.15;75.27;98514.88;5055301;28;20218;-71
2022/07/19 01:59:38;;;;;;;5.53;4.80;;;;;;;18.12;76.12;98512.50;5055562;28;20240;-72
2022/07/19 02:02:05;;;;;;;5.60;4.37;;;;;;;18.06;76.37;98511.25;5054894;28;20223;-72
2022/07/19 02:04:32;;;;;;;4.93;4.53;;;;;;;18.03;76.25;98506.16;5054965;28;20212;-72
2022/07/19 02:06:59;;;;;;;4.77;4.10;;;;;;;18.05;76.24;98509.53;5054936;28;20220;-71
2022/07/19 02:09:26;;;;;;;5.13;4.63;;;;;;;18.04;76.34;98507.03;5057040;28;20214;-71
2022/07/19 02:11:52;;;;;;;5.10;4.60;;;;;;;17.98;77.16;98512.94;5041320;28;20212;-72
2022/07/19 02:14:20;;;;;;;5.53;4.63;;;;;;;17.90;78.14;98507.44;5055283;28;20216;-71
2022/07/19 02:16:46;;;;;;;5.20;4.70;;;;;;;17.83;78.27;98507.19;5055234;28;20218;-72
2022/07/19 02:19:13;;;;;;;5.67;4.77;;;;;;;17.82;78.56;98501.97;5056954;28;20298;-71
2022/07/19 02:21:40;;;;;;;5.10;4.60;;;;;;;17.84;79.08;98500.84;5054445;28;20248;-71
2022/07/19 02:24:08;;;;;;;6.20;4.90;;;;;;;17.83;79.04;98493.81;5054156;28;20212;-71
2022/07/19 02:26:36;;;;;;;6.53;5.20;;;;;;;17.83;78.98;98491.13;5052864;28;20216;-71
2022/07/19 02:29:03;;;;;;;5.57;5.07;;;;;;;17.80;79.15;98483.38;5056452;28;20219;-71
2022/07/19 02:31:31;;;;;;;5.30;4.77;;;;;;;17.82;79.18;98486.78;5057535;28;20676;-71
2022/07/19 02:33:57;;;;;;;5.50;4.90;;;;;;;17.76;79.83;98483.81;5057353;28;20227;-71
2022/07/19 02:36:24;;;;;;;5.83;5.33;;;;;;;17.70;80.36;98490.59;5057279;28;20208;-71
2022/07/19 02:38:51;;;;;;;8.10;5.90;;;;;;;17.69;80.44;98496.91;5059031;28;20216;-71
2022/07/19 02:41:18;;;;;;;8.17;5.77;;;;;;;17.61;81.24;98494.09;5057911;28;20244;-71
2022/07/19 02:43:45;;;;;;;6.73;6.00;;;;;;;17.55;81.45;98489.31;5057485;28;20222;-71
2022/07/19 02:46:11;;;;;;;5.93;5.13;;;;;;;17.44;82.16;98486.78;5057442;28;20226;-71
2022/07/19 02:48:39;;;;;;;6.10;5.27;;;;;;;17.33;82.94;98486.03;5058448;28;20307;-71
2022/07/19 02:51:10;;;;;;;5.80;5.20;;;;;;;17.18;83.75;98485.59;5056458;28;20212;-71
2022/07/19 02:53:37;;;;;;;5.47;4.97;;;;;;;17.13;83.85;98487.81;5057513;28;20208;-71
2022/07/19 02:56:04;;;;;;;7.00;5.30;;;;;;;17.17;82.69;98489.25;5056990;28;20212;-71
2022/07/19 02:58:30;;;;;;;7.37;5.43;;;;;;;17.19;82.37;98481.94;5058614;28;20216;-70
2022/07/19 03:00:57;;;;;;;5.83;5.23;;;;;;;17.20;82.35;98485.47;5057775;28;20721;-71
2022/07/19 03:06:09;;;;;;;7.30;5.13;;;;;;;17.15;82.44;98480.53;5057141;28;20214;-72
2022/07/19 03:08:35;;;;;;;7.03;5.07;;;;;;;17.07;83.47;98483.03;5059550;28;20215;-71
2022/07/19 03:11:02;;;;;;;5.77;5.20;;;;;;;17.01;83.75;98482.75;5057235;28;20216;-71
2022/07/19 03:13:29;;;;;;;5.27;4.77;;;;;;;16.99;83.83;98484.69;5056807;28;20227;-70
2022/07/19 03:15:55;;;;;;;6.40;5.03;;;;;;;16.95;84.41;98478.78;5056931;28;20223;-71
2022/07/19 03:18:22;;;;;;;5.03;4.63;;;;;;;16.85;85.50;98477.09;5057403;28;20222;-71
2022/07/19 03:20:48;;;;;;;6.33;5.10;;;;;;;16.76;86.34;98478.75;5009036;28;1359618;-71
2022/07/19 03:23:16;;;;;;;5.63;4.80;;;;;;;16.64;87.04;98485.16;5058184;28;20224;-71
2022/07/19 03:25:43;;;;;;;5.50;5.00;;;;;;;16.56;87.58;98474.34;5057890;28;20208;-71
2022/07/19 03:28:09;;;;;;;6.10;4.60;;;;;;;16.51;87.59;98473.88;5060144;28;20215;-71
2022/07/19 03:30:36;;;;;;;5.90;4.90;;;;;;;16.42;88.18;98480.03;5057841;28;20212;-70
2022/07/19 03:33:02;;;;;;;5.73;5.13;;;;;;;16.37;88.52;98476.03;5058029;28;20224;-70
2022/07/19 03:35:29;;;;;;;5.90;5.23;;;;;;;16.28;88.83;98477.66;5057970;28;20212;-72
2022/07/19 03:37:55;;;;;;;5.10;4.53;;;;;;;16.24;88.87;98478.06;5059661;28;20208;-70
2022/07/19 03:40:23;;;;;;;5.20;4.70;;;;;;;16.27;88.28;98480.50;5043787;28;20236;-70
2022/07/19 03:42:50;;;;;;;5.13;4.67;;;;;;;16.26;87.69;98479.63;5057814;28;20235;-70
2022/07/19 03:45:17;;;;;;;4.97;4.47;;;;;;;16.31;86.94;98477.41;5056203;28;20216;-70
2022/07/19 03:47:43;;;;;;;5.13;4.63;;;;;;;16.31;86.83;98485.41;5059500;28;20218;-69
2022/07/19 03:50:10;;;;;;;4.97;4.33;;;;;;;16.28;87.29;98487.50;5057367;28;20223;-70
2022/07/19 03:52:36;;;;;;;5.73;4.90;;;;;;;16.30;87.40;98490.88;5057452;28;20208;-70
2022/07/19 03:55:03;;;;;;;6.73;5.07;;;;;;;16.32;87.39;98484.44;5057261;28;20216;-72
2022/07/19 03:57:31;;;;;;;5.23;4.73;;;;;;;16.31;87.75;98493.44;5058779;28;20215;-71
2022/07/19 03:59:57;;;;;;;5.17;4.67;;;;;;;16.27;87.90;98491.16;5057549;28;20595;-71
2022/07/19 04:02:24;;;;;;;5.23;4.73;;;;;;;16.27;88.07;98492.00;5057382;28;20223;-71
2022/07/19 04:04:50;;;;;;;6.73;4.87;;;;;;;16.28;88.15;98493.69;5057324;28;20222;-72
2022/07/19 04:07:17;;;;;;;5.33;4.83;;;;;;;16.28;87.96;98483.00;5058005;28;20683;-72
2022/07/19 04:09:43;;;;;;;5.00;4.50;;;;;;;16.32;87.96;98483.59;5056785;28;20211;-70
2022/07/19 04:12:10;;;;;;;5.20;4.70;;;;;;;16.37;87.92;98494.69;5057049;28;20665;-71
2022/07/19 04:14:38;;;;;;;4.77;4.37;;;;;;;16.40;87.83;98492.66;5057157;28;20222;-70
2022/07/19 04:17:05;;;;;;;5.10;4.60;;;;;;;16.44;87.62;98494.09;5057564;28;20216;-71
2022/07/19 04:19:31;;;;;;;5.40;4.57;;;;;;;16.46;87.59;98492.13;5058428;28;20219;-71
2022/07/19 04:21:58;;;;;;;5.47;4.70;;;;;;;16.50;87.87;98498.88;5056859;28;20244;-72
2022/07/19 04:24:24;;;;;;;4.70;4.23;;;;;;;16.58;87.35;98496.38;5056979;28;20216;-71
2022/07/19 04:26:51;;;;;;;5.43;4.93;;;;;;;16.67;87.12;98495.59;5057191;28;20212;-71
2022/07/19 04:29:17;;;;;;;4.93;4.43;;;;;;;16.73;86.65;98495.06;5058463;28;20676;-72
2022/07/19 04:31:45;;;;;;;5.47;4.77;;;;;;;16.79;86.73;98499.00;5056791;28;20306;-72
2022/07/19 04:34:12;;;;;;;5.57;4.87;;;;;;;16.85;86.66;98501.97;5056868;28;20216;-71
2022/07/19 04:36:38;;;;;;;5.10;4.60;;;;;;;16.90;86.65;98513.09;5054872;28;20208;-71
2022/07/19 04:39:05;;;;;;;4.90;4.40;;;;;;;16.97;86.09;98508.91;5058785;28;20215;-70
2022/07/19 04:41:31;;;;;;;5.43;4.70;;;;;;;17.04;86.08;98510.03;5056409;28;20245;-71
2022/07/19 04:43:58;;;;;;;5.00;4.60;;;;;;;17.11;85.59;98499.63;5056377;28;20697;-69
2022/07/19 04:46:24;;;;;;;4.80;4.27;;;;;;;17.21;84.83;98517.38;5056587;28;20212;-69
2022/07/19 04:48:52;;;;;;;5.27;4.37;;;;;;;17.32;84.71;98509.22;5058685;28;20599;-70
2022/07/19 04:51:19;;;;;;;4.77;4.23;;;;;;;17.74;82.72;98505.34;5055792;28;20226;-70
2022/07/19 04:53:45;;;;;;;6.13;4.30;;;;;;;18.28;79.69;98508.22;5056235;28;20212;-70
2022/07/19 04:56:12;;;;;;;5.13;4.53;;;;;;;18.34;78.99;98507.69;5056417;28;20222;-70
2022/07/19 04:58:38;;;;;;;5.43;4.63;;;;;;;18.27;79.44;98514.56;5057896;28;20227;-69
2022/07/19 05:01:05;;;;;;;5.63;4.87;;;;;;;18.20;79.42;98502.75;5056214;28;20240;-71
2022/07/19 05:03:31;;;;;;;5.87;4.60;;;;;;;18.21;79.29;98503.59;5054717;28;20218;-70
2022/07/19 05:05:59;;;;;;;5.33;4.73;;;;;;;18.33;79.14;98508.66;5055942;28;20219;-70
2022/07/19 05:08:26;;;;;;;6.80;4.70;;;;;;;18.44;78.47;98497.81;5058280;28;20234;-70
2022/07/19 05:10:52;;;;;;;5.40;4.90;;;;;;;18.65;78.08;98497.59;5055851;28;20211;-70
2022/07/19 05:13:19;;;;;;;5.43;4.93;;;;;;;18.84;78.01;98506.34;5055862;28;20216;-70
2022/07/19 05:15:45;;;;;;;5.93;4.53;;;;;;;19.06;78.04;98505.97;5055783;28;20557;-70
2022/07/19 05:18:12;;;;;;;6.20;4.93;;;;;;;19.51;76.35;98508.69;5057537;28;20215;-70
2022/07/19 05:20:38;;;;;;;5.43;4.67;;;;;;;20.48;71.62;98495.06;5055657;28;20614;-71
2022/07/19 05:23:07;;;;;;;4.97;4.47;;;;;;;21.58;66.56;98501.06;5056016;28;20216;-71
2022/07/19 05:25:33;;;;;;;6.00;4.87;;;;;;;22.62;61.96;98490.31;5055848;28;20231;-71
2022/07/19 05:28:00;;;;;;;6.97;4.70;;;;;;;23.50;58.11;98498.06;5056326;28;20226;-70
2022/07/19 05:30:26;;;;;;;5.10;4.60;;;;;;;24.30;54.19;98489.34;5055518;28;20688;-70
2022/07/19 05:32:53;;;;;;;5.93;4.83;;;;;;;25.04;51.88;98497.34;5055429;28;20212;-70
2022/07/19 05:35:20;;;;;;;5.93;4.00;;;;;;;25.68;49.15;98496.53;5055306;28;20704;-70
2022/07/19 05:37:46;;;;;;;6.10;3.60;;;;;;;26.29;47.58;98500.47;5056638;28;20215;-71
2022/07/19 05:40:14;;;;;;;4.97;3.87;;;;;;;26.80;45.89;98494.63;5056508;28;20302;-70
2022/07/19 05:42:41;;;;;;;10.23;3.93;;;;;;;27.25;44.76;98502.19;5055623;28;20668;-70
2022/07/19 05:45:08;;;;;;;4.87;3.70;;;;;;;27.65;43.70;98504.84;5055695;28;20212;-70
2022/07/19 05:47:35;;;;;;;4.87;3.63;;;;;;;28.05;42.76;98497.66;5056049;28;20208;-69
2022/07/19 05:50:01;;;;;;;6.53;3.67;;;;;;;28.41;41.96;98498.97;5056462;28;20579;-69
2022/07/19 05:52:28;;;;;;;4.25;3.70;;;;;;;28.79;41.04;98497.25;5055125;28;20212;-69
2022/07/19 05:54:54;;;;;;;6.18;3.80;;;;;;;29.14;40.09;98497.84;5053633;28;20572;-70
2022/07/19 05:57:22;;;;;;;4.10;3.70;;;;;;;29.40;39.63;98497.75;5055750;28;20216;-70
2022/07/19 05:59:49;;;;;;;4.60;3.50;;;;;;;29.66;39.47;98500.38;5056540;28;20219;-70
2022/07/19 06:02:16;;;;;;;4.20;3.53;;;;;;;29.92;39.08;98497.50;5055212;28;20231;-70
2022/07/19 06:04:43;;;;;;;4.32;3.67;;;;;;;30.10;39.01;98498.47;5055317;28;20266;-71
2022/07/19 06:07:09;;;;;;;6.20;3.70;;;;;;;30.23;38.44;98500.25;5055405;28;20212;-70
2022/07/19 06:09:36;;;;;;;4.30;3.35;;;;;;;30.48;38.35;98495.66;5057221;28;20562;-70
2022/07/19 06:12:02;;;;;;;5.25;3.70;;;;;;;30.71;38.07;98494.00;5055110;28;20222;-70
2022/07/19 06:14:30;;;;;;;4.85;4.03;;;;;;;30.97;37.67;98498.34;5055289;28;20582;-69
2022/07/19 06:16:57;;;;;;;5.30;3.80;;;;;;;31.17;36.96;98501.72;5055108;28;20230;-70
2022/07/19 06:19:23;;;;;;;4.78;3.85;;;;;;;31.37;36.71;98500.44;5052504;28;20220;-70
2022/07/19 06:21:50;;;;;;;4.57;3.25;;;;;;;31.60;36.87;98505.22;5053495;28;20247;-71
2022/07/19 06:24:16;;;;;;;3.35;3.05;;;;;;;31.82;36.49;98496.31;5054961;28;20242;-70
2022/07/19 06:26:43;;;;;;;4.60;3.42;;;;;;;32.05;35.75;98498.28;5054537;28;20248;-71
2022/07/19 06:29:09;;;;;;;6.18;3.72;;;;;;;32.22;35.42;98493.81;5055815;28;20213;-68
2022/07/19 06:31:37;;;;;;;3.97;3.20;;;;;;;32.35;35.35;98504.59;5052263;28;20216;-69
2022/07/19 06:34:03;;;;;;;4.55;3.17;;;;;;;32.51;34.79;98506.66;5055218;28;20579;-69
2022/07/19 06:36:30;;;;;;;3.80;3.00;;;;;;;32.61;34.38;98496.78;5055008;28;20215;-69
2022/07/19 06:38:57;;;;;;;3.53;3.10;;;;;;;32.63;34.69;98499.28;5057049;28;20633;-69
2022/07/19 06:41:23;;;;;;;3.15;2.85;;;;;;;32.68;34.39;98499.38;5054966;28;20261;-69
2022/07/19 06:43:50;;;;;;;3.40;3.10;;;;;;;32.70;34.06;98495.34;5054829;28;20216;-69
2022/07/19 06:46:16;;;;;;;5.10;3.47;;;;;;;32.85;33.66;98497.66;5054779;28;20220;-69
2022/07/19 06:48:44;;;;;;;3.60;3.30;;;;;;;32.98;33.52;98503.72;5055148;28;20212;-70
2022/07/19 06:51:11;;;;;;;4.05;3.10;;;;;;;33.12;33.75;98507.06;5054477;28;20748;-70
2022/07/19 06:53:37;;;;;;;4.40;3.22;;;;;;;33.10;32.94;98498.22;5054726;28;20215;-69
2022/07/19 06:56:05;;;;;;;4.05;3.40;;;;;;;33.13;33.12;98495.84;5054472;28;20212;-69
2022/07/19 06:58:31;;;;;;;5.00;2.92;;;;;;;33.01;32.86;98496.94;5056789;28;20215;-70
2022/07/19 07:01:00;;;;;;;4.10;3.38;;;;;;;32.75;33.38;98491.91;5066570;28;20578;-70
2022/07/19 07:03:27;;;;;;;3.50;3.20;;;;;;;32.43;34.09;98493.28;5054843;28;20217;-70
2022/07/19 07:05:54;;;;;;;3.40;2.90;;;;;;;31.89;34.98;98496.22;5054774;28;20212;-70
2022/07/19 07:08:21;;;;;;;5.20;3.35;;;;;;;30.84;36.48;98490.31;5056741;28;20227;-69
2022/07/19 07:10:47;;;;;;;4.15;3.30;;;;;;;29.48;38.36;98492.06;5066723;28;20218;-69
2022/07/19 07:13:14;;;;;;;4.10;3.30;;;;;;;28.41;41.25;98495.41;5053264;28;20218;-68
2022/07/19 07:15:42;;;;;;;4.47;3.38;;;;;;;27.68;43.26;98493.59;5058318;28;20216;-69
2022/07/19 07:18:09;;;;;;;4.75;3.17;;;;;;;27.23;43.78;98496.16;5059822;28;20252;-69
2022/07/19 07:20:35;;;;;;;6.60;3.53;;;;;;;26.97;43.94;98487.00;5058441;28;20251;-69
2022/07/19 07:23:03;;;;;;;3.30;3.03;;;;;;;26.74;44.64;98487.28;5058267;28;20326;-69
2022/07/19 07:25:30;;;;;;;3.10;2.78;;;;;;;26.64;45.61;98489.50;5057917;28;20673;-69
2022/07/19 07:27:56;;;;;;;5.10;3.30;;;;;;;26.63;44.96;98487.81;5058347;28;20220;-69
2022/07/19 07:30:23;;;;;;;3.53;3.05;;;;;;;26.61;45.41;98480.91;5057148;28;20312;-72
2022/07/19 07:32:51;;;;;;;5.72;3.40;;;;;;;26.52;45.69;98474.78;5056790;28;20238;-70
2022/07/19 07:35:17;;;;;;;5.10;3.35;;;;;;;26.59;44.96;98475.69;5056422;28;20736;-70
2022/07/19 07:37:43;;;;;;;4.30;2.80;;;;;;;26.56;44.60;98480.66;5057399;28;20216;-70
2022/07/19 07:40:12;;;;;;;5.30;2.95;;;;;;;26.61;45.11;98472.78;5055658;28;20673;-70
2022/07/19 07:42:39;;;;;;;3.65;2.80;;;;;;;26.74;45.06;98473.72;5056253;28;20236;-70
2022/07/19 07:45:09;;;;;;;3.70;2.50;;;;;;;26.91;44.37;98476.94;5056072;28;20216;-70
2022/07/19 07:47:36;;;;;;;4.82;2.55;;;;;;;27.00;43.96;98473.03;5057627;28;20216;-70
2022/07/19 07:50:04;;;;;;;2.90;2.60;;;;;;;27.06;44.04;98472.25;5057016;28;20220;-70
2022/07/19 07:52:30;;;;;;;4.00;2.63;;;;;;;27.14;42.94;98470.19;5056229;28;20212;-70
2022/07/19 07:54:57;;;;;;;5.72;2.80;;;;;;;27.26;42.93;98468.56;5056255;28;20211;-70
2022/07/19 07:57:25;;;;;;;3.95;2.67;;;;;;;27.37;42.82;98473.44;5057504;28;20255;-71
2022/07/19 07:59:52;;;;;;;4.43;2.78;;;;;;;27.43;42.46;98469.91;5056673;28;20673;-70
2022/07/19 08:02:18;;;;;;;3.88;2.60;;;;;;;27.55;42.56;98462.84;5056004;28;20247;-69
2022/07/19 08:04:45;;;;;;;2.67;2.45;;;;;;;27.68;43.06;98469.16;5055982;28;20208;-72
2022/07/19 08:07:12;;;;;;;2.75;2.40;;;;;;;27.78;42.47;98455.19;5054951;28;20222;-71
2022/07/19 08:09:39;;;;;;;2.45;2.25;;;;;;;27.93;41.97;98462.13;5057057;28;20216;-70
2022/07/19 08:12:06;;;;;;;3.53;2.55;;;;;;;28.02;41.05;98465.47;5056011;28;20220;-70
2022/07/19 08:14:34;;;;;;;2.75;2.13;;;;;;;28.10;39.98;98459.81;5055777;28;20722;-71
2022/07/19 08:17:00;;;;;;;3.45;2.75;;;;;;;28.15;40.30;98457.31;5056322;28;20594;-70
2022/07/19 08:19:27;;;;;;;2.67;2.30;;;;;;;28.29;40.61;98461.72;5056900;28;20706;-70
2022/07/19 08:21:53;;;;;;;3.22;2.45;;;;;;;28.40;40.45;98453.81;5055484;28;20259;-70
2022/07/19 08:24:20;;;;;;;4.32;2.30;;;;;;;28.47;39.50;98448.34;5055531;28;20223;-73
2022/07/19 08:26:46;;;;;;;2.15;2.03;;;;;;;28.61;39.62;98452.75;5055028;28;20208;-73
2022/07/19 08:29:13;;;;;;;3.33;2.20;;;;;;;28.71;39.36;98443.09;5057339;28;20211;-72
2022/07/19 08:31:41;;;;;;;2.38;2.17;;;;;;;28.87;39.76;98452.69;5055314;28;20699;-73
2022/07/19 08:34:07;;;;;;;2.53;2.28;;;;;;;28.97;37.96;98453.94;5054031;28;20219;-73
2022/07/19 08:36:34;;;;;;;2.25;2.00;;;;;;;29.03;37.65;98438.63;5055664;28;20205;-72
2022/07/19 08:39:00;;;;;;;2.35;2.15;;;;;;;29.21;38.90;98436.88;5057801;28;20246;-70
2022/07/19 08:41:27;;;;;;;3.47;2.00;;;;;;;29.45;37.42;98440.72;5055383;28;20216;-69
2022/07/19 08:43:54;;;;;;;3.13;2.20;;;;;;;29.55;36.89;98438.41;5055122;28;20830;-69
2022/07/19 08:46:21;;;;;;;2.67;2.00;;;;;;;29.65;36.30;98434.16;5055419;28;20212;-70
2022/07/19 08:48:49;;;;;;;3.42;2.20;;;;;;;29.73;37.28;98436.63;5057347;28;20223;-70
2022/07/19 08:51:21;;;;;;;2.05;1.85;;;;;;;29.86;36.04;98441.16;5055226;28;20219;-69
2022/07/19 08:53:49;;;;;;;2.20;2.00;;;;;;;29.98;35.40;98440.22;5055430;28;20220;-69
2022/07/19 08:59:00;;;;;;;1.85;1.73;;;;;;;30.23;35.62;98440.25;5039998;28;20996;-69
2022/07/19 09:01:27;;;;;;;3.08;1.88;;;;;;;30.35;36.43;98436.59;5054995;28;20215;-70
2022/07/19 09:04:16;;;;;;;2.30;1.90;;;;;;;30.48;34.43;98441.94;5054940;28;20216;-70
2022/07/19 09:06:45;;;;;;;2.65;2.20;;;;;;;30.56;35.13;98438.09;5054134;28;20235;-70
2022/07/19 09:09:13;;;;;;;3.45;2.20;;;;;;;30.54;35.02;98441.03;5054965;28;20220;-70
2022/07/19 09:11:48;;;;;;;2.05;1.95;;;;;;;30.62;35.61;98439.91;5054779;28;20692;-70
2022/07/19 09:14:15;;;;;;;2.72;1.83;;;;;;;30.75;33.59;98446.09;5057099;28;20638;-70
2022/07/19 09:16:57;;;;;;;3.22;1.80;;;;;;;30.76;32.26;98438.75;5054640;28;20215;-70
2022/07/19 09:19:26;;;;;;;2.45;1.88;;;;;;;30.78;32.48;98444.81;5054834;28;20576;-70
2022/07/19 09:21:54;;;;;;;3.10;1.88;;;;;;;30.88;33.60;98442.41;5055078;28;20242;-70
2022/07/19 09:24:22;;;;;;;2.63;1.83;;;;;;;31.00;33.90;98443.31;5055987;28;20217;-70
2022/07/19 09:26:59;;;;;;;3.97;1.80;;;;;;;31.16;34.60;98434.47;5053012;28;20216;-70
2022/07/19 09:29:27;;;;;;;2.30;1.70;;;;;;;31.40;31.07;98433.56;5054495;28;20216;-70
2022/07/19 09:32:07;;;;;;;2.08;1.88;;;;;;;31.42;31.91;98434.19;5056401;28;20816;-71
2022/07/19 09:34:38;;;;;;;1.73;1.60;;;;;;;31.38;31.73;98427.53;5042126;28;20266;-70
2022/07/19 09:37:15;;;;;;;2.22;1.90;;;;;;;31.33;32.84;98424.63;5053852;28;20204;-71
2022/07/19 09:39:45;;;;;;;2.65;1.90;;;;;;;31.39;33.13;98435.50;5055753;28;20270;-70
2022/07/19 09:42:12;;;;;;;3.53;2.00;;;;;;;31.50;32.91;98434.72;5054054;28;20315;-70
2022/07/19 09:44:38;;;;;;;3.80;1.90;;;;;;;31.54;32.06;98427.69;5053936;28;20741;-70
2022/07/19 09:47:05;;;;;;;3.47;2.00;;;;;;;31.62;31.58;98434.75;5054163;28;20212;-71
2022/07/19 09:49:31;;;;;;;3.78;2.13;;;;;;;31.70;30.55;98426.22;5055478;28;20218;-70
2022/07/19 09:52:01;;;;;;;3.00;2.00;;;;;;;31.67;30.79;98427.50;5054719;28;20216;-70
2022/07/19 09:54:29;;;;;;;3.90;2.20;;;;;;;31.77;30.53;98427.81;5052397;28;20290;-70
2022/07/19 09:56:56;;;;;;;2.83;2.10;;;;;;;31.84;30.62;98422.28;5054199;28;20212;-70
2022/07/19 09:59:25;;;;;;;3.35;2.08;;;;;;;31.84;30.54;98425.00;5055693;28;20226;-70
2022/07/19 10:01:53;;;;;;;3.60;2.00;;;;;;;31.94;30.37;98419.78;5054332;28;20212;-70
2022/07/19 10:04:22;;;;;;;5.00;2.40;;;;;;;31.93;30.70;98431.78;5054100;28;20211;-70
2022/07/19 10:06:50;;;;;;;4.03;2.95;;;;;;;31.93;29.56;98431.78;5054309;28;20222;-70
2022/07/19 10:09:20;;;;;;;2.85;2.30;;;;;;;31.94;30.53;98430.72;5055701;28;20269;-70
2022/07/19 10:11:46;;;;;;;2.40;2.20;;;;;;;32.07;29.33;98425.03;5040523;28;20216;-70
2022/07/19 10:14:13;;;;;;;3.42;2.53;;;;;;;31.98;30.90;98412.78;5053990;28;20212;-70
2022/07/19 10:16:49;;;;;;;3.55;2.40;;;;;;;32.14;30.16;98417.59;5053911;28;20222;-70
2022/07/19 10:19:20;;;;;;;4.22;2.15;;;;;;;32.16;30.12;98413.50;5054194;28;20211;-70
2022/07/19 10:21:48;;;;;;;6.68;2.70;;;;;;;32.24;29.07;98401.44;5053853;28;20254;-70
2022/07/19 10:24:15;;;;;;;3.88;2.40;;;;;;;32.29;30.20;98402.41;5053508;28;20236;-70
2022/07/19 10:26:44;;;;;;;3.30;2.40;;;;;;;32.32;30.30;98390.13;5053855;28;20208;-70
2022/07/19 10:29:12;;;;;;;3.22;2.40;;;;;;;32.37;30.39;98390.25;5051943;28;20222;-70
2022/07/19 10:31:40;;;;;;;3.35;2.42;;;;;;;32.41;29.65;98394.19;5053746;28;20222;-70
2022/07/19 10:34:08;;;;;;;3.00;2.70;;;;;;;32.39;30.90;98393.59;5053842;28;20254;-70
2022/07/19 10:36:38;;;;;;;2.65;2.45;;;;;;;32.49;29.67;98385.63;5053457;28;20227;-70
2022/07/19 10:39:26;;;;;;;5.50;2.50;;;;;;;32.53;29.26;98390.41;5054917;28;20212;-70
2022/07/19 10:42:16;;;;;;;6.60;3.00;;;;;;;32.54;28.45;98385.75;5052211;28;20254;-70
2022/07/19 10:45:12;;;;;;;7.68;3.20;;;;;;;32.54;28.93;98383.00;5055377;28;20216;-70
2022/07/19 10:48:01;;;;;;;5.25;2.78;;;;;;;32.61;27.85;98383.69;5042170;28;20239;-70
2022/07/19 10:50:44;;;;;;;3.25;2.17;;;;;;;32.53;28.58;98384.94;5058430;28;20227;-70
2022/07/19 10:53:10;;;;;;;3.67;2.40;;;;;;;32.58;29.30;98376.00;5044689;28;20231;-70
2022/07/19 10:55:37;;;;;;;2.65;2.30;;;;;;;32.58;28.92;98381.47;5057198;28;20666;-70
2022/07/19 10:58:12;;;;;;;5.00;2.97;;;;;;;32.55;28.94;98376.44;5057341;28;20274;-70
2022/07/19 11:00:43;;;;;;;4.15;2.33;;;;;;;32.70;28.43;98376.81;5055245;28;20218;-70
2022/07/19 11:03:31;;;;;;;3.17;2.10;;;;;;;32.73;29.28;98368.09;5056672;28;20250;-69
2022/07/19 11:05:59;;;;;;;2.42;2.20;;;;;;;32.67;29.09;98377.28;5050498;28;20220;-69
2022/07/19 11:08:34;;;;;;;3.05;2.63;;;;;;;32.69;28.97;98373.22;5059523;28;20212;-70
2022/07/19 11:11:05;;;;;;;3.40;2.33;;;;;;;32.85;28.20;98366.19;5057222;28;20207;-69
2022/07/19 11:13:33;;;;;;;4.65;2.25;;;;;;;32.84;28.44;98359.91;5055509;28;20311;-69
2022/07/19 11:16:00;;;;;;;4.22;2.30;;;;;;;32.88;29.22;98352.03;5057475;28;20216;-69
2022/07/19 11:18:27;;;;;;;3.20;2.10;;;;;;;33.00;28.23;98352.84;5057624;28;20740;-70
2022/07/19 11:20:57;;;;;;;5.63;2.80;;;;;;;33.01;27.78;98347.09;5056786;28;20240;-70
2022/07/19 11:23:24;;;;;;;4.40;2.20;;;;;;;32.98;28.13;98341.28;5056880;28;20236;-70
2022/07/19 11:25:51;;;;;;;2.50;2.17;;;;;;;32.99;28.07;98340.19;5057749;28;20212;-70
2022/07/19 11:28:22;;;;;;;2.63;2.33;;;;;;;33.04;27.82;98337.56;5057995;28;20247;-68
2022/07/19 11:30:51;;;;;;;4.25;2.55;;;;;;;33.03;26.59;98341.38;5056634;28;20220;-70
2022/07/19 11:33:18;;;;;;;4.55;2.40;;;;;;;33.03;27.80;98335.91;5056527;28;20224;-69
2022/07/19 11:35:58;;;;;;;3.88;2.40;;;;;;;33.04;27.24;98337.56;5058235;28;20212;-69
2022/07/19 11:38:34;;;;;;;3.38;2.30;;;;;;;33.03;27.84;98330.44;5055480;28;20673;-68
2022/07/19 11:41:01;;;;;;;5.05;2.65;;;;;;;33.08;28.48;98323.16;5054933;28;20218;-69
2022/07/19 11:43:28;;;;;;;5.05;2.40;;;;;;;33.16;27.84;98319.19;5056447;28;20301;-68